createdAt,value
2017-09-19T00:00:09.772Z,11.08
2017-09-19T00:01:09.770Z,11.08
2017-09-19T00:02:04.599Z,11.09
2017-09-19T00:02:58.592Z,11.08
2017-09-19T00:03:58.639Z,11.08
2017-09-19T00:04:53.670Z,11.07
2017-09-19T00:05:49.031Z,11.02
2017-09-19T00:06:49.688Z,11.07
2017-09-19T00:07:44.054Z,11.07
2017-09-19T00:08:31.839Z,11.06
2017-09-19T00:09:31.891Z,11.07
2017-09-19T00:10:31.889Z,11.06
2017-09-19T00:11:26.921Z,11.08
2017-09-19T00:12:21.046Z,11.10
2017-09-19T00:13:09.001Z,11.11
2017-09-19T00:13:58.071Z,11.11
2017-09-19T00:14:47.058Z,11.11
2017-09-19T00:15:41.147Z,11.13
2017-09-19T00:16:41.153Z,11.16
2017-09-19T00:17:29.153Z,11.15
2017-09-19T00:18:29.253Z,11.17
2017-09-19T00:19:18.227Z,11.16
2017-09-19T00:20:07.277Z,11.18
2017-09-19T00:21:01.308Z,11.16
2017-09-19T00:21:55.381Z,11.19
2017-09-19T00:22:50.379Z,11.20
2017-09-19T00:23:44.475Z,11.19
2017-09-19T00:24:44.452Z,11.21
2017-09-19T00:25:33.505Z,11.20
2017-09-19T00:26:27.550Z,11.23
2017-09-19T00:27:16.573Z,11.24
2017-09-19T00:28:10.783Z,11.26
2017-09-19T00:29:04.695Z,11.26
2017-09-19T00:29:53.682Z,11.25
2017-09-19T00:30:41.729Z,11.26
2017-09-19T00:31:35.773Z,11.24
2017-09-19T00:32:23.793Z,11.25
2017-09-19T00:33:12.847Z,11.24
2017-09-19T00:34:00.865Z,11.24
2017-09-19T00:34:48.992Z,11.24
2017-09-19T00:35:38.014Z,11.24
2017-09-19T00:36:26.046Z,11.24
2017-09-19T00:37:14.062Z,11.24
2017-09-19T00:38:02.113Z,11.25
2017-09-19T00:38:51.156Z,11.24
2017-09-19T00:39:39.164Z,11.25
2017-09-19T00:40:33.210Z,11.24
2017-09-19T00:41:21.244Z,11.27
2017-09-19T00:42:10.497Z,11.27
2017-09-19T00:42:58.313Z,11.25
2017-09-19T00:43:53.434Z,11.26
2017-09-19T00:44:48.372Z,11.28
2017-09-19T00:45:48.760Z,11.23
2017-09-19T00:46:36.490Z,11.24
2017-09-19T00:47:24.483Z,11.27
2017-09-19T00:48:13.556Z,11.26
2017-09-19T00:49:01.579Z,11.25
2017-09-19T00:49:55.599Z,11.27
2017-09-19T00:50:49.975Z,11.23
2017-09-19T00:51:49.721Z,11.25
2017-09-19T00:52:49.709Z,11.23
2017-09-19T00:53:44.732Z,11.27
2017-09-19T00:54:38.804Z,11.26
2017-09-19T00:55:39.823Z,11.26
2017-09-19T00:56:39.880Z,11.30
2017-09-19T00:57:34.899Z,11.30
2017-09-19T00:58:35.051Z,11.31
2017-09-19T00:59:28.981Z,11.31
2017-09-19T01:00:28.971Z,11.30
2017-09-19T01:01:23.994Z,11.29
2017-09-19T01:02:19.085Z,11.30
2017-09-19T01:03:19.086Z,11.28
2017-09-19T01:04:14.096Z,11.30
2017-09-19T01:05:09.186Z,11.29
2017-09-19T01:06:10.492Z,11.28
2017-09-19T01:07:11.219Z,11.31
2017-09-19T01:08:06.337Z,11.31
2017-09-19T01:09:00.303Z,11.33
2017-09-19T01:10:00.293Z,11.32
2017-09-19T01:11:00.371Z,11.34
2017-09-19T01:11:55.363Z,11.32
2017-09-19T01:12:49.413Z,11.32
2017-09-19T01:13:50.448Z,11.33
2017-09-19T01:14:51.504Z,11.34
2017-09-19T01:15:51.495Z,11.32
2017-09-19T01:16:51.668Z,11.35
2017-09-19T01:17:51.578Z,11.34
2017-09-19T01:18:52.654Z,11.36
2017-09-19T01:19:53.616Z,11.34
2017-09-19T01:20:47.661Z,11.34
2017-09-19T01:21:47.806Z,11.34
2017-09-19T01:22:42.713Z,11.35
2017-09-19T01:23:42.711Z,11.34
2017-09-19T01:24:42.804Z,11.34
2017-09-19T01:25:48.805Z,11.34
2017-09-19T01:26:43.847Z,11.34
2017-09-19T01:27:43.870Z,11.35
2017-09-19T01:28:43.897Z,11.35
2017-09-19T01:29:43.944Z,11.37
2017-09-19T01:30:38.980Z,11.34
2017-09-19T01:31:38.984Z,11.38
2017-09-19T01:32:39.007Z,11.37
2017-09-19T01:33:34.080Z,11.38
2017-09-19T01:34:34.067Z,11.37
2017-09-19T01:35:29.189Z,11.36
2017-09-19T01:36:29.183Z,11.40
2017-09-19T01:37:23.166Z,11.37
2017-09-19T01:38:24.196Z,11.38
2017-09-19T01:39:24.282Z,11.36
2017-09-19T01:40:19.306Z,11.39
2017-09-19T01:41:14.625Z,11.32
2017-09-19T01:42:02.398Z,11.38
2017-09-19T01:42:50.419Z,11.37
2017-09-19T01:43:39.469Z,11.40
2017-09-19T01:44:27.472Z,11.38
2017-09-19T01:45:15.553Z,11.37
2017-09-19T01:46:04.579Z,11.40
2017-09-19T01:46:52.587Z,11.37
2017-09-19T01:47:40.640Z,11.36
2017-09-19T01:48:28.683Z,11.37
2017-09-19T01:49:17.692Z,11.36
2017-09-19T01:50:05.801Z,11.38
2017-09-19T01:51:05.853Z,11.38
2017-09-19T01:52:00.962Z,11.40
2017-09-19T01:53:00.958Z,11.38
2017-09-19T01:53:55.949Z,11.41
2017-09-19T01:54:50.985Z,11.39
2017-09-19T01:55:45.016Z,11.38
2017-09-19T01:56:38.993Z,11.38
2017-09-19T01:57:39.085Z,11.40
2017-09-19T01:58:33.099Z,11.38
2017-09-19T01:59:33.083Z,11.39
2017-09-19T02:00:28.170Z,11.36
2017-09-19T02:01:23.173Z,11.36
2017-09-19T02:02:23.200Z,11.36
2017-09-19T02:03:18.278Z,11.36
2017-09-19T02:04:18.268Z,11.36
2017-09-19T02:05:12.314Z,11.38
2017-09-19T02:06:12.622Z,11.36
2017-09-19T02:07:07.400Z,11.38
2017-09-19T02:08:02.408Z,11.36
2017-09-19T02:09:02.501Z,11.36
2017-09-19T02:09:57.476Z,11.38
2017-09-19T02:10:52.794Z,11.37
2017-09-19T02:11:52.508Z,11.38
2017-09-19T02:12:47.600Z,11.38
2017-09-19T02:13:42.575Z,11.38
2017-09-19T02:14:48.771Z,11.38
2017-09-19T02:15:42.621Z,11.35
2017-09-19T02:16:42.704Z,11.35
2017-09-19T02:17:37.722Z,11.34
2017-09-19T02:18:43.764Z,11.37
2017-09-19T02:19:38.798Z,11.34
2017-09-19T02:20:33.029Z,11.34
2017-09-19T02:21:33.885Z,11.34
2017-09-19T02:22:28.916Z,11.36
2017-09-19T02:23:22.918Z,11.36
2017-09-19T02:24:23.002Z,11.36
2017-09-19T02:25:22.981Z,11.36
2017-09-19T02:26:18.277Z,11.35
2017-09-19T02:27:12.086Z,11.36
2017-09-19T02:28:12.081Z,11.35
2017-09-19T02:29:07.095Z,11.35
2017-09-19T02:30:02.146Z,11.34
2017-09-19T02:31:03.185Z,11.32
2017-09-19T02:32:03.275Z,11.35
2017-09-19T02:33:03.232Z,11.34
2017-09-19T02:34:03.326Z,11.32
2017-09-19T02:35:04.305Z,11.36
2017-09-19T02:36:05.620Z,11.36
2017-09-19T02:36:59.552Z,11.34
2017-09-19T02:37:59.433Z,11.34
2017-09-19T02:38:54.460Z,11.36
2017-09-19T02:39:49.485Z,11.38
2017-09-19T02:40:49.733Z,11.35
2017-09-19T02:41:44.554Z,11.37
2017-09-19T02:42:39.560Z,11.38
2017-09-19T02:43:39.654Z,11.37
2017-09-19T02:44:34.672Z,11.38
2017-09-19T02:45:23.676Z,11.38
2017-09-19T02:46:23.697Z,11.38
2017-09-19T02:47:12.692Z,11.40
2017-09-19T02:48:07.077Z,11.41
2017-09-19T02:49:00.893Z,11.40
2017-09-19T02:49:48.874Z,11.42
2017-09-19T02:50:36.897Z,11.41
2017-09-19T02:51:25.919Z,11.42
2017-09-19T02:52:13.975Z,11.40
2017-09-19T02:53:02.004Z,11.39
2017-09-19T02:53:51.146Z,11.40
2017-09-19T02:54:39.104Z,11.39
2017-09-19T02:55:28.138Z,11.37
2017-09-19T02:56:16.496Z,11.31
2017-09-19T02:57:04.223Z,11.39
2017-09-19T02:57:52.298Z,11.39
2017-09-19T02:58:41.345Z,11.38
2017-09-19T02:59:29.379Z,11.38
2017-09-19T03:00:17.459Z,11.39
2017-09-19T03:01:06.448Z,11.36
2017-09-19T03:01:54.490Z,11.37
2017-09-19T03:02:42.511Z,11.38
2017-09-19T03:03:31.616Z,11.37
2017-09-19T03:04:31.626Z,11.35
2017-09-19T03:05:25.814Z,11.36
2017-09-19T03:06:19.635Z,11.34
2017-09-19T03:07:07.708Z,11.35
2017-09-19T03:07:56.772Z,11.30
2017-09-19T03:08:51.969Z,11.24
2017-09-19T03:09:40.796Z,11.25
2017-09-19T03:10:29.865Z,11.22
2017-09-19T03:11:19.110Z,11.19
2017-09-19T03:12:06.985Z,11.20
2017-09-19T03:12:55.032Z,11.21
2017-09-19T03:14:00.968Z,11.22
2017-09-19T03:14:56.206Z,11.22
2017-09-19T03:15:44.222Z,11.22
2017-09-19T03:16:38.090Z,11.25
2017-09-19T03:17:26.239Z,11.24
2017-09-19T03:18:15.181Z,11.25
2017-09-19T03:19:03.190Z,11.28
2017-09-19T03:20:09.249Z,11.28
2017-09-19T03:21:04.367Z,11.24
2017-09-19T03:21:58.303Z,11.27
2017-09-19T03:22:52.369Z,11.24
2017-09-19T03:23:47.402Z,11.22
2017-09-19T03:24:47.417Z,11.18
2017-09-19T03:25:42.486Z,11.17
2017-09-19T03:26:37.519Z,11.17
2017-09-19T03:27:37.527Z,11.16
2017-09-19T03:28:32.650Z,11.15
2017-09-19T03:29:27.606Z,11.17
2017-09-19T03:30:33.599Z,11.18
2017-09-19T03:31:27.666Z,11.18
2017-09-19T03:32:27.746Z,11.19
2017-09-19T03:33:22.748Z,11.18
2017-09-19T03:34:22.788Z,11.19
2017-09-19T03:35:16.816Z,11.18
2017-09-19T03:36:18.114Z,11.16
2017-09-19T03:37:17.865Z,11.16
2017-09-19T03:38:12.936Z,11.15
2017-09-19T03:39:12.957Z,11.14
2017-09-19T03:40:06.982Z,11.16
2017-09-19T03:41:07.985Z,11.13
2017-09-19T03:42:09.040Z,11.15
2017-09-19T03:43:04.071Z,11.15
2017-09-19T03:43:58.103Z,11.17
2017-09-19T03:44:58.133Z,11.20
2017-09-19T03:45:53.437Z,11.18
2017-09-19T03:46:53.205Z,11.20
2017-09-19T03:47:54.221Z,11.22
2017-09-19T03:48:48.428Z,11.22
2017-09-19T03:49:43.332Z,11.24
2017-09-19T03:50:31.502Z,11.20
2017-09-19T03:51:20.485Z,11.20
2017-09-19T03:52:09.372Z,11.21
2017-09-19T03:52:57.480Z,11.18
2017-09-19T03:53:45.456Z,11.19
2017-09-19T03:54:33.556Z,11.20
2017-09-19T03:55:21.586Z,11.20
2017-09-19T03:56:10.614Z,11.18
2017-09-19T03:57:10.658Z,11.22
2017-09-19T03:58:04.681Z,11.24
2017-09-19T03:58:59.708Z,11.24
2017-09-19T03:59:53.886Z,11.26
2017-09-19T04:00:48.005Z,11.22
2017-09-19T04:01:41.789Z,11.26
2017-09-19T04:02:35.920Z,11.26
2017-09-19T04:03:23.862Z,11.20
2017-09-19T04:04:12.131Z,11.18
2017-09-19T04:04:59.955Z,11.19
2017-09-19T04:05:48.003Z,11.15
2017-09-19T04:06:42.099Z,11.15
2017-09-19T04:07:31.140Z,11.12
2017-09-19T04:08:31.144Z,11.12
2017-09-19T04:09:20.165Z,11.14
2017-09-19T04:10:08.239Z,11.14
2017-09-19T04:10:57.249Z,11.14
2017-09-19T04:11:45.326Z,11.14
2017-09-19T04:12:39.351Z,11.12
2017-09-19T04:13:39.388Z,11.12
2017-09-19T04:14:39.431Z,11.11
2017-09-19T04:15:34.491Z,11.09
2017-09-19T04:16:28.498Z,11.11
2017-09-19T04:17:16.497Z,11.13
2017-09-19T04:18:10.582Z,11.13
2017-09-19T04:18:59.570Z,11.13
2017-09-19T04:19:47.609Z,11.16
2017-09-19T04:20:35.667Z,11.12
2017-09-19T04:21:23.668Z,11.14
2017-09-19T04:22:17.768Z,11.16
2017-09-19T04:23:05.777Z,11.15
2017-09-19T04:23:53.805Z,11.16
2017-09-19T04:24:47.870Z,11.18
2017-09-19T04:25:36.916Z,11.17
2017-09-19T04:26:31.050Z,11.20
2017-09-19T04:27:19.020Z,11.18
2017-09-19T04:28:14.012Z,11.13
2017-09-19T04:29:02.074Z,11.11
2017-09-19T04:29:56.139Z,11.10
2017-09-19T04:30:44.133Z,11.10
2017-09-19T04:31:38.182Z,11.12
2017-09-19T04:32:32.215Z,11.13
2017-09-19T04:33:33.274Z,11.12
2017-09-19T04:34:33.278Z,11.12
2017-09-19T04:35:28.538Z,11.15
2017-09-19T04:36:28.319Z,11.14
2017-09-19T04:37:22.388Z,11.14
2017-09-19T04:38:22.601Z,11.13
2017-09-19T04:39:17.407Z,11.15
2017-09-19T04:40:12.486Z,11.12
2017-09-19T04:41:12.491Z,11.09
2017-09-19T04:42:07.541Z,11.12
2017-09-19T04:43:02.547Z,11.10
2017-09-19T04:44:03.977Z,11.10
2017-09-19T04:45:03.628Z,11.07
2017-09-19T04:46:03.700Z,11.06
2017-09-19T04:46:58.798Z,11.09
2017-09-19T04:47:52.700Z,11.09
2017-09-19T04:48:53.767Z,11.11
2017-09-19T04:49:48.808Z,11.11
2017-09-19T04:50:42.829Z,11.12
2017-09-19T04:51:30.965Z,11.10
2017-09-19T04:52:19.908Z,11.12
2017-09-19T04:53:07.954Z,11.11
2017-09-19T04:53:55.991Z,11.12
2017-09-19T04:54:44.065Z,11.11
2017-09-19T04:55:33.357Z,11.09
2017-09-19T04:56:21.134Z,11.12
2017-09-19T04:57:10.149Z,11.10
2017-09-19T04:57:58.198Z,11.09
2017-09-19T04:58:46.304Z,11.11
2017-09-19T04:59:35.304Z,11.11
2017-09-19T05:00:23.302Z,11.10
2017-09-19T05:01:17.406Z,11.11
2017-09-19T05:02:12.375Z,11.12
2017-09-19T05:03:12.431Z,11.12
2017-09-19T05:04:00.560Z,11.11
2017-09-19T05:04:48.472Z,11.10
2017-09-19T05:05:36.813Z,11.08
2017-09-19T05:06:25.621Z,11.09
2017-09-19T05:07:13.649Z,11.10
2017-09-19T05:08:02.963Z,11.10
2017-09-19T05:08:50.705Z,11.11
2017-09-19T05:10:03.770Z,11.12
2017-09-19T05:10:52.792Z,11.12
2017-09-19T05:11:46.854Z,11.11
2017-09-19T05:12:41.856Z,11.09
2017-09-19T05:13:36.930Z,11.08
2017-09-19T05:14:31.879Z,11.10
2017-09-19T05:15:26.056Z,11.09
2017-09-19T05:16:26.026Z,11.12
2017-09-19T05:17:27.290Z,11.10
2017-09-19T05:18:22.085Z,11.13
2017-09-19T05:19:16.133Z,11.10
2017-09-19T05:20:17.116Z,11.12
2017-09-19T05:21:17.194Z,11.12
2017-09-19T05:22:12.218Z,11.15
2017-09-19T05:23:12.199Z,11.14
2017-09-19T05:24:12.264Z,11.18
2017-09-19T05:25:12.290Z,11.19
2017-09-19T05:26:06.368Z,11.21
2017-09-19T05:27:06.379Z,11.21
2017-09-19T05:28:01.680Z,11.18
2017-09-19T05:28:56.786Z,11.24
2017-09-19T05:29:50.497Z,11.20
2017-09-19T05:30:51.483Z,11.25
2017-09-19T05:31:57.505Z,11.25
2017-09-19T05:32:51.551Z,11.24
2017-09-19T05:33:52.565Z,11.26
2017-09-19T05:34:52.744Z,11.22
2017-09-19T05:35:52.713Z,11.28
2017-09-19T05:36:47.641Z,11.29
2017-09-19T05:37:47.701Z,11.27
2017-09-19T05:38:47.695Z,11.32
2017-09-19T05:39:47.821Z,11.34
2017-09-19T05:40:47.839Z,11.34
2017-09-19T05:41:47.872Z,11.32
2017-09-19T05:42:47.856Z,11.27
2017-09-19T05:43:36.908Z,11.37
2017-09-19T05:44:24.979Z,11.34
2017-09-19T05:45:12.958Z,11.32
2017-09-19T05:46:02.116Z,11.38
2017-09-19T05:46:50.109Z,11.37
2017-09-19T05:47:38.143Z,11.41
2017-09-19T05:48:27.266Z,11.40
2017-09-19T05:49:15.180Z,11.34
2017-09-19T05:50:03.264Z,11.38
2017-09-19T05:50:52.270Z,11.34
2017-09-19T05:51:40.371Z,11.34
2017-09-19T05:52:29.391Z,11.40
2017-09-19T05:53:17.416Z,11.37
2017-09-19T05:54:05.485Z,11.39
2017-09-19T05:54:53.518Z,11.38
2017-09-19T05:55:42.586Z,11.38
2017-09-19T05:56:30.568Z,11.39
2017-09-19T05:57:19.672Z,11.37
2017-09-19T05:58:07.672Z,11.38
2017-09-19T05:58:56.701Z,11.42
2017-09-19T05:59:44.753Z,11.42
2017-09-19T06:00:34.022Z,11.40
2017-09-19T06:01:21.880Z,11.40
2017-09-19T06:02:10.960Z,11.38
2017-09-19T06:02:59.003Z,11.33
2017-09-19T06:03:47.015Z,11.37
2017-09-19T06:04:34.982Z,11.42
2017-09-19T06:05:23.085Z,11.39
2017-09-19T06:06:12.109Z,11.38
2017-09-19T06:07:00.153Z,11.46
2017-09-19T06:07:48.176Z,11.39
2017-09-19T06:08:37.346Z,11.47
2017-09-19T06:09:31.343Z,11.46
2017-09-19T06:10:19.297Z,11.42
2017-09-19T06:11:07.432Z,11.49
2017-09-19T06:11:55.402Z,11.54
2017-09-19T06:12:44.391Z,11.50
2017-09-19T06:13:32.465Z,11.54
2017-09-19T06:14:21.487Z,11.47
2017-09-19T06:15:09.553Z,11.46
2017-09-19T06:15:57.600Z,11.49
2017-09-19T06:16:46.659Z,11.47
2017-09-19T06:17:34.659Z,11.44
2017-09-19T06:18:22.693Z,11.49
2017-09-19T06:19:22.781Z,11.47
2017-09-19T06:20:16.804Z,11.42
2017-09-19T06:21:04.839Z,11.38
2017-09-19T06:21:59.879Z,11.38
2017-09-19T06:22:48.918Z,11.35
2017-09-19T06:23:42.956Z,11.39
2017-09-19T06:24:31.165Z,11.36
2017-09-19T06:25:31.218Z,11.39
2017-09-19T06:26:19.098Z,11.39
2017-09-19T06:27:13.122Z,11.42
2017-09-19T06:28:07.156Z,11.43
2017-09-19T06:29:08.149Z,11.46
2017-09-19T06:30:09.197Z,11.49
2017-09-19T06:31:09.216Z,11.52
2017-09-19T06:32:04.289Z,11.54
2017-09-19T06:33:04.304Z,11.56
2017-09-19T06:33:59.321Z,11.56
2017-09-19T06:34:54.366Z,11.56
2017-09-19T06:35:48.556Z,11.62
2017-09-19T06:36:48.446Z,11.66
2017-09-19T06:37:43.497Z,11.66
2017-09-19T06:38:38.512Z,11.65
2017-09-19T06:39:26.575Z,11.66
2017-09-19T06:40:15.746Z,11.69
2017-09-19T06:41:15.788Z,11.72
2017-09-19T06:42:15.654Z,11.80
2017-09-19T06:43:09.693Z,11.78
2017-09-19T06:43:57.709Z,11.76
2017-09-19T06:44:52.834Z,11.75
2017-09-19T06:45:46.804Z,11.61
2017-09-19T06:46:40.961Z,11.58
2017-09-19T06:47:29.870Z,11.52
2017-09-19T06:48:23.927Z,11.50
2017-09-19T06:49:12.989Z,11.47
2017-09-19T06:50:06.999Z,11.54
2017-09-19T06:51:07.032Z,11.52
2017-09-19T06:52:02.053Z,11.53
2017-09-19T06:52:50.108Z,11.52
2017-09-19T06:53:38.182Z,11.52
2017-09-19T06:54:26.197Z,11.55
2017-09-19T06:55:15.246Z,11.48
2017-09-19T06:56:10.280Z,11.46
2017-09-19T06:57:11.359Z,11.54
2017-09-19T06:58:12.340Z,11.56
2017-09-19T06:59:06.386Z,11.66
2017-09-19T07:00:06.431Z,11.68
2017-09-19T07:00:54.427Z,11.73
2017-09-19T07:01:42.472Z,11.85
2017-09-19T07:02:42.563Z,11.89
2017-09-19T07:03:37.551Z,11.97
2017-09-19T07:04:26.630Z,12.01
2017-09-19T07:05:15.631Z,11.98
2017-09-19T07:06:03.674Z,12.04
2017-09-19T07:06:57.747Z,12.02
2017-09-19T07:07:45.911Z,11.98
2017-09-19T07:08:34.809Z,11.96
2017-09-19T07:09:23.858Z,11.98
2017-09-19T07:10:12.070Z,12.05
2017-09-19T07:10:59.948Z,12.05
2017-09-19T07:11:47.967Z,12.12
2017-09-19T07:12:37.046Z,12.04
2017-09-19T07:13:32.077Z,12.08
2017-09-19T07:14:21.180Z,12.00
2017-09-19T07:15:15.168Z,11.98
2017-09-19T07:16:15.197Z,12.00
2017-09-19T07:17:04.242Z,11.96
2017-09-19T07:17:58.277Z,11.87
2017-09-19T07:18:52.275Z,11.90
2017-09-19T07:19:46.361Z,11.97
2017-09-19T07:20:46.398Z,11.88
2017-09-19T07:21:34.430Z,12.04
2017-09-19T07:22:29.479Z,12.12
2017-09-19T07:23:30.516Z,12.08
2017-09-19T07:24:19.872Z,12.12
2017-09-19T07:25:08.572Z,12.14
2017-09-19T07:26:03.649Z,12.15
2017-09-19T07:26:57.675Z,12.18
2017-09-19T07:27:51.695Z,12.23
2017-09-19T07:28:40.757Z,12.26
2017-09-19T07:29:29.056Z,12.17
2017-09-19T07:30:29.804Z,12.24
2017-09-19T07:31:18.883Z,12.22
2017-09-19T07:32:13.909Z,12.22
2017-09-19T07:33:07.957Z,12.20
2017-09-19T07:33:55.970Z,12.20
2017-09-19T07:34:57.119Z,12.22
2017-09-19T07:35:46.071Z,12.19
2017-09-19T07:36:35.090Z,12.24
2017-09-19T07:37:24.137Z,12.23
2017-09-19T07:38:18.174Z,12.26
2017-09-19T07:39:13.428Z,12.28
2017-09-19T07:40:08.310Z,12.30
2017-09-19T07:41:03.295Z,12.17
2017-09-19T07:41:57.359Z,12.21
2017-09-19T07:42:52.343Z,12.17
2017-09-19T07:43:47.423Z,12.15
2017-09-19T07:44:36.485Z,12.19
2017-09-19T07:45:24.540Z,12.19
2017-09-19T07:46:12.555Z,12.17
2017-09-19T07:47:07.603Z,12.11
2017-09-19T07:48:02.636Z,12.14
2017-09-19T07:48:56.664Z,12.16
2017-09-19T07:49:51.725Z,12.13
2017-09-19T07:50:46.043Z,12.16
2017-09-19T07:51:40.789Z,12.22
2017-09-19T07:52:40.961Z,12.27
2017-09-19T07:53:28.853Z,12.34
2017-09-19T07:54:16.885Z,12.38
2017-09-19T07:55:11.068Z,12.47
2017-09-19T07:56:05.451Z,12.45
2017-09-19T07:57:06.175Z,12.52
2017-09-19T07:58:01.114Z,12.56
2017-09-19T07:58:50.088Z,12.58
2017-09-19T07:59:44.158Z,12.80
2017-09-19T08:00:33.224Z,12.92
2017-09-19T08:01:33.274Z,13.04
2017-09-19T08:02:28.391Z,13.16
2017-09-19T08:03:16.286Z,13.26
2017-09-19T08:04:16.408Z,13.40
2017-09-19T08:05:11.409Z,13.56
2017-09-19T08:06:05.443Z,13.70
2017-09-19T08:06:53.504Z,13.79
2017-09-19T08:07:41.562Z,14.00
2017-09-19T08:08:35.579Z,14.12
2017-09-19T08:09:29.574Z,14.12
2017-09-19T08:10:29.677Z,13.98
2017-09-19T08:11:24.671Z,13.82
2017-09-19T08:12:18.764Z,13.84
2017-09-19T08:13:07.751Z,14.10
2017-09-19T08:14:01.801Z,14.79
2017-09-19T08:14:55.868Z,15.57
2017-09-19T08:15:56.034Z,16.14
2017-09-19T08:16:50.107Z,16.13
2017-09-19T08:17:44.209Z,15.56
2017-09-19T08:18:33.215Z,15.16
2017-09-19T08:19:27.282Z,14.66
2017-09-19T08:20:21.318Z,14.57
2017-09-19T08:21:10.336Z,14.41
2017-09-19T08:22:04.373Z,14.20
2017-09-19T08:22:53.475Z,14.12
2017-09-19T08:23:42.454Z,14.11
2017-09-19T08:24:42.615Z,13.99
2017-09-19T08:25:36.666Z,13.93
2017-09-19T08:26:36.600Z,13.75
2017-09-19T08:27:30.639Z,13.61
2017-09-19T08:28:24.992Z,13.28
2017-09-19T08:29:19.782Z,13.09
2017-09-19T08:30:07.809Z,12.69
2017-09-19T08:31:07.872Z,12.52
2017-09-19T08:32:01.855Z,12.58
2017-09-19T08:32:49.962Z,12.50
2017-09-19T08:33:44.063Z,12.30
2017-09-19T08:34:38.011Z,12.28
2017-09-19T08:35:33.060Z,12.27
2017-09-19T08:36:27.054Z,12.30
2017-09-19T08:37:27.133Z,12.34
2017-09-19T08:38:27.187Z,12.26
2017-09-19T08:39:15.277Z,12.45
2017-09-19T08:40:10.238Z,12.41
2017-09-19T08:41:10.322Z,12.38
2017-09-19T08:42:05.390Z,12.34
2017-09-19T08:42:59.369Z,12.57
2017-09-19T08:43:59.395Z,12.65
2017-09-19T08:44:54.510Z,12.86
2017-09-19T08:45:54.558Z,13.04
2017-09-19T08:46:43.599Z,12.83
2017-09-19T08:47:31.601Z,12.77
2017-09-19T08:48:19.636Z,12.77
2017-09-19T08:49:08.715Z,12.64
2017-09-19T08:50:08.787Z,12.48
2017-09-19T08:51:08.739Z,12.24
2017-09-19T08:52:02.847Z,12.21
2017-09-19T08:52:50.870Z,12.15
2017-09-19T08:53:51.901Z,12.04
2017-09-19T08:54:45.994Z,12.03
2017-09-19T08:55:41.094Z,11.97
2017-09-19T08:56:41.064Z,11.86
2017-09-19T08:57:35.067Z,11.66
2017-09-19T08:58:24.208Z,11.36
2017-09-19T08:59:13.211Z,11.18
2017-09-19T09:00:01.256Z,10.94
2017-09-19T09:00:55.547Z,10.94
2017-09-19T09:01:43.410Z,10.84
2017-09-19T09:02:31.359Z,10.68
2017-09-19T09:03:25.485Z,10.60
2017-09-19T09:04:14.492Z,10.62
2017-09-19T09:05:08.523Z,10.58
2017-09-19T09:05:56.871Z,10.66
2017-09-19T09:06:44.671Z,10.74
2017-09-19T09:07:33.664Z,10.81
2017-09-19T09:08:28.721Z,10.76
2017-09-19T09:09:16.783Z,10.82
2017-09-19T09:10:04.849Z,10.81
2017-09-19T09:10:58.849Z,10.80
2017-09-19T09:11:47.708Z,10.84
2017-09-19T09:12:48.008Z,10.80
2017-09-19T09:13:41.977Z,10.95
2017-09-19T09:14:35.855Z,11.02
2017-09-19T09:15:36.190Z,10.96
2017-09-19T09:16:30.204Z,10.84
2017-09-19T09:17:18.174Z,10.87
2017-09-19T09:18:12.228Z,10.82
2017-09-19T09:19:06.267Z,10.74
2017-09-19T09:20:00.292Z,10.83
2017-09-19T09:20:48.420Z,10.86
2017-09-19T09:21:43.417Z,10.80
2017-09-19T09:22:38.497Z,10.86
2017-09-19T09:23:27.544Z,10.86
2017-09-19T09:24:16.587Z,11.12
2017-09-19T09:25:05.599Z,11.12
2017-09-19T09:25:59.683Z,11.30
2017-09-19T09:26:54.756Z,11.21
2017-09-19T09:27:49.715Z,11.33
2017-09-19T09:28:43.591Z,11.46
2017-09-19T09:29:37.726Z,11.58
2017-09-19T09:30:26.740Z,11.94
2017-09-19T09:31:15.763Z,11.99
2017-09-19T09:32:04.836Z,11.92
2017-09-19T09:32:52.843Z,11.96
2017-09-19T09:33:53.887Z,11.75
2017-09-19T09:34:48.996Z,11.91
2017-09-19T09:35:43.185Z,12.21
2017-09-19T09:36:43.053Z,12.21
2017-09-19T09:37:37.059Z,12.02
2017-09-19T09:38:26.137Z,11.78
2017-09-19T09:39:20.171Z,12.08
2017-09-19T09:40:08.175Z,12.10
2017-09-19T09:41:02.418Z,12.19
2017-09-19T09:42:03.541Z,12.49
2017-09-19T09:42:57.597Z,12.54
2017-09-19T09:43:45.350Z,12.22
2017-09-19T09:44:40.467Z,12.42
2017-09-19T09:45:34.436Z,12.31
2017-09-19T09:46:23.525Z,12.42
2017-09-19T09:47:17.619Z,12.21
2017-09-19T09:48:17.661Z,11.76
2017-09-19T09:49:06.648Z,11.56
2017-09-19T09:50:00.712Z,11.97
2017-09-19T09:51:00.857Z,11.90
2017-09-19T09:51:55.063Z,11.96
2017-09-19T09:52:49.944Z,11.82
2017-09-19T09:53:43.887Z,12.26
2017-09-19T09:54:37.944Z,12.07
2017-09-19T09:55:33.091Z,12.08
2017-09-19T09:56:22.022Z,12.26
2017-09-19T09:57:16.294Z,12.89
2017-09-19T09:58:10.325Z,13.52
2017-09-19T09:59:05.376Z,13.70
2017-09-19T09:59:53.356Z,13.88
2017-09-19T10:00:53.450Z,14.94
2017-09-19T10:01:48.491Z,15.21
2017-09-19T10:02:42.544Z,16.00
2017-09-19T10:03:36.639Z,16.32
2017-09-19T10:04:30.634Z,16.52
2017-09-19T10:05:24.706Z,16.27
2017-09-19T10:06:24.735Z,15.96
2017-09-19T10:07:19.752Z,15.58
2017-09-19T10:08:13.779Z,15.31
2017-09-19T10:09:08.878Z,15.08
2017-09-19T10:09:58.112Z,14.66
2017-09-19T10:10:51.957Z,14.74
2017-09-19T10:11:46.955Z,14.76
2017-09-19T10:12:47.068Z,14.64
2017-09-19T10:13:41.065Z,14.42
2017-09-19T10:14:36.152Z,14.01
2017-09-19T10:15:30.255Z,13.66
2017-09-19T10:16:24.260Z,13.40
2017-09-19T10:17:13.304Z,13.44
2017-09-19T10:18:08.352Z,14.57
2017-09-19T10:18:57.403Z,14.54
2017-09-19T10:19:57.383Z,14.51
2017-09-19T10:20:52.467Z,14.08
2017-09-19T10:21:46.451Z,13.96
2017-09-19T10:22:46.498Z,13.70
2017-09-19T10:23:40.609Z,13.08
2017-09-19T10:24:40.673Z,13.10
2017-09-19T10:25:29.677Z,13.67
2017-09-19T10:26:24.767Z,13.76
2017-09-19T10:27:24.795Z,14.26
2017-09-19T10:28:24.832Z,13.80
2017-09-19T10:29:18.899Z,13.80
2017-09-19T10:30:18.870Z,13.34
2017-09-19T10:31:12.939Z,13.07
2017-09-19T10:32:12.955Z,13.17
2017-09-19T10:33:07.039Z,13.21
2017-09-19T10:34:07.142Z,13.98
2017-09-19T10:35:01.142Z,14.53
2017-09-19T10:36:02.195Z,14.53
2017-09-19T10:37:02.222Z,14.58
2017-09-19T10:37:51.347Z,14.88
2017-09-19T10:38:45.269Z,15.64
2017-09-19T10:39:39.344Z,15.66
2017-09-19T10:40:33.408Z,15.71
2017-09-19T10:41:33.434Z,15.70
2017-09-19T10:42:27.478Z,15.82
2017-09-19T10:43:22.376Z,15.86
2017-09-19T10:44:16.660Z,16.12
2017-09-19T10:45:10.432Z,16.27
2017-09-19T10:46:04.454Z,16.35
2017-09-19T10:46:58.552Z,16.54
2017-09-19T10:47:58.705Z,16.52
2017-09-19T10:48:47.619Z,16.51
2017-09-19T10:49:36.668Z,16.60
2017-09-19T10:50:30.734Z,17.06
2017-09-19T10:51:25.862Z,17.16
2017-09-19T10:52:20.972Z,17.64
2017-09-19T10:53:09.145Z,18.18
2017-09-19T10:54:04.238Z,18.74
2017-09-19T10:54:58.132Z,18.92
2017-09-19T10:55:52.328Z,19.04
2017-09-19T10:56:52.323Z,18.60
2017-09-19T10:57:47.239Z,18.35
2017-09-19T10:58:36.441Z,18.31
2017-09-19T10:59:30.503Z,18.12
2017-09-19T11:00:25.536Z,17.93
2017-09-19T11:01:20.539Z,17.38
2017-09-19T11:02:20.540Z,16.79
2017-09-19T11:03:15.592Z,16.52
2017-09-19T11:04:10.431Z,16.28
2017-09-19T11:05:11.785Z,16.60
2017-09-19T11:06:00.740Z,16.92
2017-09-19T11:06:54.803Z,17.47
2017-09-19T11:07:42.857Z,18.07
2017-09-19T11:08:31.957Z,18.61
2017-09-19T11:09:31.962Z,18.59
2017-09-19T11:10:32.097Z,18.15
2017-09-19T11:11:32.058Z,17.80
2017-09-19T11:12:26.148Z,17.36
2017-09-19T11:13:26.161Z,17.19
2017-09-19T11:14:20.236Z,17.22
2017-09-19T11:15:14.289Z,17.03
2017-09-19T11:16:08.279Z,17.06
2017-09-19T11:17:08.366Z,17.36
2017-09-19T11:18:02.410Z,17.83
2017-09-19T11:18:56.489Z,18.55
2017-09-19T11:19:50.500Z,19.18
2017-09-19T11:20:44.618Z,19.52
2017-09-19T11:21:39.658Z,19.70
2017-09-19T11:22:33.692Z,19.29
2017-09-19T11:23:33.710Z,18.70
2017-09-19T11:24:28.815Z,18.04
2017-09-19T11:25:23.776Z,17.37
2017-09-19T11:26:17.837Z,17.00
2017-09-19T11:27:12.979Z,16.51
2017-09-19T11:28:07.008Z,16.22
2017-09-19T11:29:01.039Z,15.96
2017-09-19T11:29:49.077Z,15.86
2017-09-19T11:30:43.226Z,15.72
2017-09-19T11:31:31.139Z,15.75
2017-09-19T11:32:32.231Z,15.80
2017-09-19T11:33:26.261Z,15.76